Terminal Aerodrome Forecast
Issued by NWS

Home | Current Version | Previous Version | Text Only | Print | Product List | Glossary On
Versions: 1 2 3 4 5 6 7 8 9 10 11 12 13 14 15 16 17 18 19 20 21 22 23 24 25 26 27 28 29 30 31 32 33 34 35 36 37 38 39 40 41
271
FTUS41 KOKX 240833 AAB
TAFTEB
TAF AMD
KTEB 240833Z 2409/2506 02016G23KT 5SM -RA BR OVC014
     FM241500 35012G20KT 5SM -RA BR OVC012
     FM242000 32012KT 5SM -RA BR OVC016
     FM250300 32012KT P6SM BKN030=

USA.gov is the U.S. government's official web portal to all federal, state and local government web resources and services.